^^
Grace C. Lehan Memorial Weather Station Historical Data
Daily Summary for March 30, 2021 Units:  Both    English   Metric
Daily Weekly Monthly Yearly
  High: Low: Average:
Temperature: 99.3 °F /  37.4 °C 72.9 °F /  22.7 °C 86 °F /  30 °C
Dew Point: 78.2 °F /  25.7 °C 71.1 °F /  21.7 °C 74.5 °F /  23.6 °C
Humidity: 95% 43.5% 72%
Wind Speed: 3.9mph /  6.3km/h - 0.9mph /  1.4km/h
Wind Gust: 14mph /  22.5km/h - -
Wind- - WSW
Pressure: 30.04 in /  1017.2 hPa 29.77 in /  1008 hPa -
Precipitation: 0.00 in /  0 mm    
 
 
Tabular Data for March 30, 2021
Time Temperature Dew Point Pressure Wind Wind Speed Wind Gust Humidity Rainfall Rate (Hourly) solar
00:09 76.2 °F /  24.6 °C 74.3 °F /  23.5 °C 30.04in /  1017.2hPa Calm     94% 0.00in /  0mm 0 W/m2
00:14 76.2 °F /  24.6 °C 74.3 °F /  23.5 °C 30.03in /  1016.8hPa Calm     94% 0.00in /  0mm 0 W/m2
00:19 76.1 °F /  24.5 °C 74.3 °F /  23.5 °C 30.03in /  1016.8hPa Calm     94% 0.00in /  0mm 0 W/m2
00:24 76.1 °F /  24.5 °C 74.3 °F /  23.5 °C 30.03in /  1016.8hPa Calm     94% 0.00in /  0mm 0 W/m2
00:29 76.1 °F /  24.5 °C 74.3 °F /  23.5 °C 30.04in /  1017.2hPa Calm     94% 0.00in /  0mm 0 W/m2
00:34 76.1 °F /  24.5 °C 74.3 °F /  23.5 °C 30.04in /  1017.2hPa Calm     94% 0.00in /  0mm 0 W/m2
00:39 76.1 °F /  24.5 °C 74.2 °F /  23.4 °C 30.04in /  1017.2hPa Calm     94% 0.00in /  0mm 0 W/m2
00:44 76 °F /  24.4 °C 74.2 °F /  23.4 °C 30.04in /  1017.2hPa Calm     94% 0.00in /  0mm 0 W/m2
00:49 76 °F /  24.4 °C 74.2 °F /  23.4 °C 30.04in /  1017.2hPa Calm     94% 0.00in /  0mm 0 W/m2
00:54 76 °F /  24.4 °C 74.2 °F /  23.4 °C 30.04in /  1017.2hPa Calm     94% 0.00in /  0mm 0 W/m2
00:56 76 °F /  24.4 °C 74.2 °F /  23.4 °C 30.04in /  1017.2hPa Calm     94% 0.00in /  0mm 0 W/m2
01:00 76 °F /  24.4 °C 74.2 °F /  23.4 °C 30.04in /  1017.2hPa Calm     94% 0.00in /  0mm 0 W/m2
01:30 75.9 °F /  24.4 °C 74.4 °F /  23.6 °C 30.04in /  1017.2hPa Calm     95% 0.00in /  0mm 0 W/m2
02:00 75.7 °F /  24.3 °C 74.2 °F /  23.4 °C 30.02in /  1016.5hPa Calm     95% 0.00in /  0mm 0 W/m2
02:30 75.2 °F /  24 °C 73.7 °F /  23.2 °C 30.01in /  1016.1hPa Calm     95% 0.00in /  0mm 0 W/m2
03:00 74.7 °F /  23.7 °C 72.9 °F /  22.7 °C 30.01in /  1016.1hPa Calm     94% 0.00in /  0mm 0 W/m2
03:30 74.3 °F /  23.5 °C 72.5 °F /  22.5 °C 30.01in /  1016.1hPa Calm     94% 0.00in /  0mm 0 W/m2
04:04 74 °F /  23.3 °C 72.2 °F /  22.3 °C 30.00in /  1015.8hPa Calm     94% 0.00in /  0mm 0 W/m2
04:09 74 °F /  23.3 °C 72.1 °F /  22.3 °C 30.00in /  1015.8hPa Calm     94% 0.00in /  0mm 0 W/m2
04:14 73.9 °F /  23.3 °C 72.1 °F /  22.3 °C 29.99in /  1015.5hPa Calm     94% 0.00in /  0mm 0 W/m2
04:19 73.9 °F /  23.3 °C 72 °F /  22.2 °C 29.99in /  1015.5hPa Calm     94% 0.00in /  0mm 0 W/m2
04:24 73.8 °F /  23.2 °C 72 °F /  22.2 °C 29.99in /  1015.5hPa Calm     94% 0.00in /  0mm 0 W/m2
04:29 73.8 °F /  23.2 °C 72 °F /  22.2 °C 29.98in /  1015.1hPa Calm     94% 0.00in /  0mm 0 W/m2
04:34 73.7 °F /  23.2 °C 71.9 °F /  22.2 °C 29.98in /  1015.1hPa Calm     94% 0.00in /  0mm 0 W/m2
04:39 73.7 °F /  23.2 °C 71.7 °F /  22.1 °C 29.98in /  1015.1hPa Calm     93.5% 0.00in /  0mm 0 W/m2
04:44 73.5 °F /  23.1 °C 71.4 °F /  21.9 °C 29.97in /  1014.8hPa Calm     93% 0.00in /  0mm 0 W/m2
04:49 73.5 °F /  23.1 °C 71.3 °F /  21.8 °C 29.97in /  1014.8hPa Calm     93% 0.00in /  0mm 0 W/m2
04:54 73.4 °F /  23 °C 71.3 °F /  21.8 °C 29.97in /  1014.8hPa Calm     93% 0.00in /  0mm 0 W/m2
04:59 73.4 °F /  23 °C 71.3 °F /  21.8 °C 29.97in /  1014.8hPa Calm     93% 0.00in /  0mm 0 W/m2
05:04 73.3 °F /  22.9 °C 71.2 °F /  21.8 °C 29.97in /  1014.8hPa Calm     93% 0.00in /  0mm 0 W/m2
05:09 73.3 °F /  22.9 °C 71.2 °F /  21.8 °C 29.97in /  1014.8hPa Calm     93% 0.00in /  0mm 0 W/m2
05:14 73.3 °F /  22.9 °C 71.1 °F /  21.7 °C 29.97in /  1014.8hPa Calm     93% 0.00in /  0mm 0 W/m2
05:19 73.2 °F /  22.9 °C 71.1 °F /  21.7 °C 29.97in /  1014.8hPa Calm     93% 0.00in /  0mm 0 W/m2
05:24 73.1 °F /  22.8 °C 71.1 °F /  21.7 °C 29.96in /  1014.4hPa Calm     93.5% 0.00in /  0mm 0 W/m2
05:29 73.1 °F /  22.8 °C 71.3 °F /  21.8 °C 29.97in /  1014.8hPa Calm     94% 0.00in /  0mm 0 W/m2
05:34 73 °F /  22.8 °C 71.2 °F /  21.8 °C 29.97in /  1014.8hPa Calm     94% 0.00in /  0mm 0 W/m2
05:39 73 °F /  22.8 °C 71.2 °F /  21.8 °C 29.97in /  1014.8hPa Calm     94% 0.00in /  0mm 5 W/m2
05:44 72.9 °F /  22.7 °C 71.1 °F /  21.7 °C 29.97in /  1014.8hPa Calm     94% 0.00in /  0mm 9 W/m2
05:49 72.9 °F /  22.7 °C 71.1 °F /  21.7 °C 29.97in /  1014.8hPa Calm     94% 0.00in /  0mm 11 W/m2
05:54 72.9 °F /  22.7 °C 71.1 °F /  21.7 °C 29.97in /  1014.8hPa Calm     94% 0.00in /  0mm 12 W/m2
05:59 73 °F /  22.8 °C 71.1 °F /  21.7 °C 29.97in /  1014.8hPa Calm     94% 0.00in /  0mm 16 W/m2
06:04 73 °F /  22.8 °C 71.2 °F /  21.8 °C 29.98in /  1015.1hPa Calm     94% 0.00in /  0mm 18 W/m2
06:09 73.1 °F /  22.8 °C 71.3 °F /  21.8 °C 29.98in /  1015.1hPa SSE 0.1mph /  0.2km/h 2mph /  3.2km/h 94% 0.00in /  0mm 19 W/m2
06:14 73.1 °F /  22.8 °C 71.3 °F /  21.8 °C 29.99in /  1015.5hPa Calm   2mph /  3.2km/h 94% 0.00in /  0mm 21 W/m2
06:19 73.2 °F /  22.9 °C 71.3 °F /  21.8 °C 29.99in /  1015.5hPa Calm   2mph /  3.2km/h 94% 0.00in /  0mm 21 W/m2
06:24 73.3 °F /  22.9 °C 71.5 °F /  21.9 °C 29.98in /  1015.1hPa Calm   2mph /  3.2km/h 94% 0.00in /  0mm 23 W/m2
06:29 73.4 °F /  23 °C 71.6 °F /  22 °C 29.98in /  1015.1hPa Calm   2mph /  3.2km/h 94% 0.00in /  0mm 28 W/m2
06:34 73.5 °F /  23.1 °C 71.7 °F /  22.1 °C 29.98in /  1015.1hPa Calm   2mph /  3.2km/h 94.2% 0.00in /  0mm 37 W/m2
06:39 73.7 °F /  23.2 °C 72.2 °F /  22.3 °C 29.98in /  1015.1hPa Calm     95% 0.00in /  0mm 42 W/m2
06:44 74 °F /  23.3 °C 72.5 °F /  22.5 °C 29.98in /  1015.1hPa Calm     95% 0.00in /  0mm 46 W/m2
06:49 74.4 °F /  23.6 °C 72.9 °F /  22.7 °C 29.98in /  1015.1hPa Calm     95% 0.00in /  0mm 56 W/m2
06:54 75 °F /  23.9 °C 73.5 °F /  23.1 °C 29.98in /  1015.1hPa Calm     95% 0.00in /  0mm 58 W/m2
06:59 75.7 °F /  24.3 °C 74.2 °F /  23.4 °C 29.98in /  1015.1hPa Calm     95% 0.00in /  0mm 60 W/m2
07:04 76.4 °F /  24.7 °C 74.7 °F /  23.7 °C 29.98in /  1015.1hPa Calm     94.3% 0.00in /  0mm 62 W/m2
07:09 77.2 °F /  25.1 °C 75 °F /  23.9 °C 29.98in /  1015.1hPa Calm     93.1% 0.00in /  0mm 63 W/m2
07:14 78 °F /  25.6 °C 75.6 °F /  24.2 °C 29.98in /  1015.1hPa Calm     92.2% 0.00in /  0mm 65 W/m2
07:19 78.9 °F /  26.1 °C 75.9 °F /  24.4 °C 29.98in /  1015.1hPa Calm     90.5% 0.00in /  0mm 69 W/m2
07:24 79.7 °F /  26.5 °C 76.1 °F /  24.5 °C 29.98in /  1015.1hPa Calm     88.9% 0.00in /  0mm 105 W/m2
07:29 80.4 °F /  26.9 °C 76.1 °F /  24.5 °C 29.98in /  1015.1hPa Calm     86.8% 0.00in /  0mm 304 W/m2
07:34 81.1 °F /  27.3 °C 76.4 °F /  24.7 °C 29.97in /  1014.8hPa Calm     85.6% 0.00in /  0mm 323 W/m2
07:39 81.6 °F /  27.6 °C 76.2 °F /  24.6 °C 29.97in /  1014.8hPa Calm     83.6% 0.00in /  0mm 343 W/m2
07:44 82.1 °F /  27.8 °C 76.1 °F /  24.5 °C 29.97in /  1014.8hPa Calm     82% 0.00in /  0mm 364 W/m2
07:49 82.6 °F /  28.1 °C 76.3 °F /  24.6 °C 29.97in /  1014.8hPa Calm     81.3% 0.00in /  0mm 383 W/m2
07:54 83.1 °F /  28.4 °C 76.7 °F /  24.8 °C 29.98in /  1015.1hPa WSW 0.1mph /  0.2km/h 3mph /  4.8km/h 81.1% 0.00in /  0mm 401 W/m2
07:59 83.5 °F /  28.6 °C 76.5 °F /  24.7 °C 29.98in /  1015.1hPa Calm   3mph /  4.8km/h 79.6% 0.00in /  0mm 417 W/m2
08:04 84.2 °F /  29 °C 77 °F /  25 °C 29.97in /  1014.8hPa Calm     79% 0.00in /  0mm 434 W/m2
08:09 84.5 °F /  29.2 °C 76.6 °F /  24.8 °C 29.97in /  1014.8hPa Calm     77.3% 0.00in /  0mm 448 W/m2
08:14 84.8 °F /  29.3 °C 76.3 °F /  24.6 °C 29.97in /  1014.8hPa Calm     75.8% 0.00in /  0mm 452 W/m2
08:19 85.1 °F /  29.5 °C 75.7 °F /  24.3 °C 29.97in /  1014.8hPa Calm     73.5% 0.00in /  0mm 471 W/m2
08:24 85.4 °F /  29.7 °C 75.7 °F /  24.3 °C 29.97in /  1014.8hPa WSW 0.4mph /  0.6km/h 6mph /  9.7km/h 72.8% 0.00in /  0mm 483 W/m2
08:29 85.6 °F /  29.8 °C 76.1 °F /  24.5 °C 29.97in /  1014.8hPa Calm   6mph /  9.7km/h 73.4% 0.00in /  0mm 499 W/m2
08:34 85.9 °F /  29.9 °C 76.3 °F /  24.6 °C 29.97in /  1014.8hPa Calm   6mph /  9.7km/h 73.2% 0.00in /  0mm 515 W/m2
08:39 86.2 °F /  30.1 °C 76.4 °F /  24.7 °C 29.97in /  1014.8hPa Calm   1mph /  1.6km/h 72.8% 0.00in /  0mm 520 W/m2
08:44 86.5 °F /  30.3 °C 76.3 °F /  24.6 °C 29.97in /  1014.8hPa Calm   1mph /  1.6km/h 71.7% 0.00in /  0mm 538 W/m2
08:49 87 °F /  30.6 °C 76.3 °F /  24.6 °C 29.97in /  1014.8hPa WSW 0.1mph /  0.2km/h 2mph /  3.2km/h 70.8% 0.00in /  0mm 554 W/m2
08:54 87.4 °F /  30.8 °C 76 °F /  24.4 °C 29.97in /  1014.8hPa WSW 0.7mph /  1.1km/h 6mph /  9.7km/h 69.1% 0.00in /  0mm 571 W/m2
08:59 87.6 °F /  30.9 °C 76.1 °F /  24.5 °C 29.97in /  1014.8hPa Calm   6mph /  9.7km/h 68.8% 0.00in /  0mm 571 W/m2
09:04 87.9 °F /  31.1 °C 76.8 °F /  24.9 °C 29.96in /  1014.4hPa Calm   6mph /  9.7km/h 69.7% 0.00in /  0mm 585 W/m2
09:09 88.3 °F /  31.3 °C 76.5 °F /  24.7 °C 29.96in /  1014.4hPa Calm   1mph /  1.6km/h 68.2% 0.00in /  0mm 594 W/m2
09:14 88.7 °F /  31.5 °C 76 °F /  24.4 °C 29.96in /  1014.4hPa WSW 0.1mph /  0.2km/h 3mph /  4.8km/h 66.3% 0.00in /  0mm 599 W/m2
09:19 88.9 °F /  31.6 °C 76.2 °F /  24.6 °C 29.96in /  1014.4hPa WSW 0.2mph /  0.3km/h 4mph /  6.4km/h 66.2% 0.00in /  0mm 613 W/m2
09:24 89 °F /  31.7 °C 75.6 °F /  24.2 °C 29.96in /  1014.4hPa West 0.8mph /  1.3km/h 7mph /  11.3km/h 64.6% 0.00in /  0mm 633 W/m2
09:29 89.1 °F /  31.7 °C 75.4 °F /  24.1 °C 29.96in /  1014.4hPa WSW 1mph /  1.6km/h 7mph /  11.3km/h 64% 0.00in /  0mm 650 W/m2
09:34 89.5 °F /  31.9 °C 76.4 °F /  24.7 °C 29.95in /  1014.1hPa WSW 0.3mph /  0.5km/h 7mph /  11.3km/h 65.5% 0.00in /  0mm 666 W/m2
09:39 89.9 °F /  32.2 °C 76.2 °F /  24.6 °C 29.95in /  1014.1hPa WSW 1.1mph /  1.8km/h 6mph /  9.7km/h 64.2% 0.00in /  0mm 689 W/m2
09:44 90.2 °F /  32.3 °C 76.3 °F /  24.6 °C 29.95in /  1014.1hPa WSW 1.2mph /  1.9km/h 9mph /  14.5km/h 63.6% 0.00in /  0mm 700 W/m2
09:49 90.6 °F /  32.6 °C 77.1 °F /  25.1 °C 29.95in /  1014.1hPa West 0.9mph /  1.4km/h 9mph /  14.5km/h 64.7% 0.00in /  0mm 708 W/m2
09:54 91 °F /  32.8 °C 76.4 °F /  24.7 °C 29.95in /  1014.1hPa WSW 2.4mph /  3.9km/h 9mph /  14.5km/h 62.6% 0.00in /  0mm 721 W/m2
09:59 91.1 °F /  32.8 °C 77.1 °F /  25.1 °C 29.95in /  1014.1hPa SW 0.2mph /  0.3km/h 9mph /  14.5km/h 63.6% 0.00in /  0mm 731 W/m2
10:04 91.3 °F /  32.9 °C 76.8 °F /  24.9 °C 29.95in /  1014.1hPa WSW 1mph /  1.6km/h 9mph /  14.5km/h 62.7% 0.00in /  0mm 747 W/m2
10:09 91.5 °F /  33.1 °C 77.2 °F /  25.1 °C 29.95in /  1014.1hPa WSW 0.5mph /  0.8km/h 6mph /  9.7km/h 63.1% 0.00in /  0mm 765 W/m2
10:14 91.8 °F /  33.2 °C 76.8 °F /  24.9 °C 29.95in /  1014.1hPa West 1.5mph /  2.4km/h 10mph /  16.1km/h 61.8% 0.00in /  0mm 773 W/m2
10:19 92 °F /  33.3 °C 76.7 °F /  24.8 °C 29.94in /  1013.8hPa WSW 1.7mph /  2.7km/h 10mph /  16.1km/h 61.2% 0.00in /  0mm 789 W/m2
10:24 92.2 °F /  33.4 °C 76.8 °F /  24.9 °C 29.94in /  1013.8hPa WSW 1.5mph /  2.4km/h 10mph /  16.1km/h 61.1% 0.00in /  0mm 800 W/m2
10:29 92.4 °F /  33.6 °C 77.3 °F /  25.2 °C 29.94in /  1013.8hPa WSW 0.3mph /  0.5km/h 10mph /  16.1km/h 61.8% 0.00in /  0mm 809 W/m2
10:34 92.6 °F /  33.7 °C 76.9 °F /  24.9 °C 29.94in /  1013.8hPa West 1.5mph /  2.4km/h 10mph /  16.1km/h 60.4% 0.00in /  0mm 821 W/m2
10:39 92.9 °F /  33.8 °C 77.7 °F /  25.4 °C 29.94in /  1013.8hPa West 0.8mph /  1.3km/h 6mph /  9.7km/h 61.5% 0.00in /  0mm 824 W/m2
10:44 93.2 °F /  34 °C 77.6 °F /  25.3 °C 29.94in /  1013.8hPa West 0.1mph /  0.2km/h 6mph /  9.7km/h 60.5% 0.00in /  0mm 837 W/m2
10:49 93.6 °F /  34.2 °C 78.1 °F /  25.6 °C 29.93in /  1013.4hPa West 1.9mph /  3.1km/h 7mph /  11.3km/h 61% 0.00in /  0mm 847 W/m2
10:54 93.9 °F /  34.4 °C 77.9 °F /  25.5 °C 29.93in /  1013.4hPa SW 0.5mph /  0.8km/h 7mph /  11.3km/h 60% 0.00in /  0mm 854 W/m2
10:59 94.1 °F /  34.5 °C 77.2 °F /  25.1 °C 29.93in /  1013.4hPa SW 1.7mph /  2.7km/h 7mph /  11.3km/h 58.1% 0.00in /  0mm 863 W/m2
11:04 94.2 °F /  34.6 °C 76.9 °F /  24.9 °C 29.93in /  1013.4hPa SW 2.4mph /  3.9km/h 7mph /  11.3km/h 57.4% 0.00in /  0mm 870 W/m2
11:09 94.3 °F /  34.6 °C 77.4 °F /  25.2 °C 29.93in /  1013.4hPa WSW 0.9mph /  1.4km/h 7mph /  11.3km/h 58.4% 0.00in /  0mm 879 W/m2
11:14 94.5 °F /  34.7 °C 78.2 °F /  25.7 °C 29.93in /  1013.4hPa West 0.5mph /  0.8km/h 7mph /  11.3km/h 59.4% 0.00in /  0mm 888 W/m2
11:19 94.9 °F /  34.9 °C 77.8 °F /  25.4 °C 29.93in /  1013.4hPa WSW 2.8mph /  4.5km/h 8mph /  12.9km/h 57.9% 0.00in /  0mm 893 W/m2
11:24 95 °F /  35 °C 76.5 °F /  24.7 °C 29.93in /  1013.4hPa SW 1.7mph /  2.7km/h 8mph /  12.9km/h 55.3% 0.00in /  0mm 904 W/m2
11:29 95.1 °F /  35.1 °C 77.3 °F /  25.2 °C 29.93in /  1013.4hPa SW 1.4mph /  2.3km/h 8mph /  12.9km/h 56.7% 0.00in /  0mm 905 W/m2
11:34 95.3 °F /  35.2 °C 77.4 °F /  25.2 °C 29.93in /  1013.4hPa SW 0.8mph /  1.3km/h 8mph /  12.9km/h 56.6% 0.00in /  0mm 905 W/m2
11:39 95.4 °F /  35.2 °C 78.2 °F /  25.7 °C 29.92in /  1013.1hPa WSW 1mph /  1.6km/h 4mph /  6.4km/h 57.7% 0.00in /  0mm 916 W/m2
11:44 95.6 °F /  35.3 °C 77.3 °F /  25.2 °C 29.92in /  1013.1hPa SW 1.9mph /  3.1km/h 9mph /  14.5km/h 55.8% 0.00in /  0mm 916 W/m2
11:49 95.8 °F /  35.4 °C 77.5 °F /  25.3 °C 29.92in /  1013.1hPa SW 1.2mph /  1.9km/h 9mph /  14.5km/h 55.8% 0.00in /  0mm 926 W/m2
11:54 95.9 °F /  35.5 °C 77 °F /  25 °C 29.92in /  1013.1hPa WSW 2mph /  3.2km/h 11mph /  17.7km/h 54.7% 0.00in /  0mm 933 W/m2
11:59 95.9 °F /  35.5 °C 77.9 °F /  25.5 °C 29.92in /  1013.1hPa West 1.5mph /  2.4km/h 11mph /  17.7km/h 56.3% 0.00in /  0mm 935 W/m2
12:04 96.1 °F /  35.6 °C 77.3 °F /  25.2 °C 29.92in /  1013.1hPa WSW 0.5mph /  0.8km/h 1mph /  1.6km/h 55% 0.00in /  0mm 939 W/m2
12:09 96.2 °F /  35.7 °C 77.4 °F /  25.2 °C 29.92in /  1013.1hPa West 2.1mph /  3.4km/h 10mph /  16.1km/h 54.9% 0.00in /  0mm 940 W/m2
12:14 96.2 °F /  35.7 °C 76 °F /  24.4 °C 29.91in /  1012.8hPa West 2.9mph /  4.7km/h 10mph /  16.1km/h 52.4% 0.00in /  0mm 944 W/m2
12:19 96 °F /  35.6 °C 76.6 °F /  24.8 °C 29.91in /  1012.8hPa SW 3.4mph /  5.5km/h 10mph /  16.1km/h 53.9% 0.00in /  0mm 949 W/m2
12:24 96 °F /  35.6 °C 77.1 °F /  25.1 °C 29.91in /  1012.8hPa WSW 1.4mph /  2.3km/h 10mph /  16.1km/h 54.8% 0.00in /  0mm 949 W/m2
12:29 95.9 °F /  35.5 °C 75.9 °F /  24.4 °C 29.91in /  1012.8hPa West 3.1mph /  5km/h 10mph /  16.1km/h 52.8% 0.00in /  0mm 953 W/m2
12:34 95.8 °F /  35.4 °C 76.3 °F /  24.6 °C 29.91in /  1012.8hPa WSW 1.7mph /  2.7km/h 10mph /  16.1km/h 53.7% 0.00in /  0mm 956 W/m2
12:39 95.9 °F /  35.5 °C 76.1 °F /  24.5 °C 29.91in /  1012.8hPa WSW 2.9mph /  4.7km/h 7mph /  11.3km/h 53% 0.00in /  0mm 956 W/m2
12:44 95.9 °F /  35.5 °C 76.5 °F /  24.7 °C 29.90in /  1012.4hPa WSW 1.4mph /  2.3km/h 7mph /  11.3km/h 53.9% 0.00in /  0mm 958 W/m2
12:49 96 °F /  35.6 °C 76 °F /  24.4 °C 29.90in /  1012.4hPa WSW 1.2mph /  1.9km/h 7mph /  11.3km/h 52.8% 0.00in /  0mm 962 W/m2
12:54 96.1 °F /  35.6 °C 75.3 °F /  24.1 °C 29.89in /  1012.1hPa SW 1.5mph /  2.4km/h 7mph /  11.3km/h 51.5% 0.00in /  0mm 965 W/m2
12:59 96.3 °F /  35.7 °C 75.6 °F /  24.2 °C 29.89in /  1012.1hPa West 1.3mph /  2.1km/h 7mph /  11.3km/h 51.7% 0.00in /  0mm 967 W/m2
13:04 96.4 °F /  35.8 °C 74.4 °F /  23.6 °C 29.89in /  1012.1hPa WSW 2.1mph /  3.4km/h 7mph /  11.3km/h 49.4% 0.00in /  0mm 967 W/m2
13:09 96.4 °F /  35.8 °C 75.4 °F /  24.1 °C 29.89in /  1012.1hPa West 1.3mph /  2.1km/h 10mph /  16.1km/h 51.1% 0.00in /  0mm 963 W/m2
13:14 96.7 °F /  35.9 °C 75.6 °F /  24.2 °C 29.89in /  1012.1hPa WSW 3.1mph /  5km/h 11mph /  17.7km/h 51% 0.00in /  0mm 963 W/m2
13:19 96.9 °F /  36.1 °C 75 °F /  23.9 °C 29.89in /  1012.1hPa West 3.9mph /  6.3km/h 11mph /  17.7km/h 49.7% 0.00in /  0mm 962 W/m2
13:24 97 °F /  36.1 °C 75.3 °F /  24.1 °C 29.89in /  1012.1hPa WNW 3mph /  4.8km/h 14mph /  22.5km/h 50% 0.00in /  0mm 960 W/m2
13:29 97.2 °F /  36.2 °C 75 °F /  23.9 °C 29.89in /  1012.1hPa West 3.4mph /  5.5km/h 14mph /  22.5km/h 49.3% 0.00in /  0mm 954 W/m2
13:34 97.2 °F /  36.2 °C 75.1 °F /  23.9 °C 29.88in /  1011.7hPa West 2.7mph /  4.3km/h 14mph /  22.5km/h 49.4% 0.00in /  0mm 953 W/m2
13:39 97.3 °F /  36.3 °C 74.6 °F /  23.7 °C 29.88in /  1011.7hPa WSW 2.1mph /  3.4km/h 9mph /  14.5km/h 48.3% 0.00in /  0mm 954 W/m2
13:44 97.7 °F /  36.5 °C 75.1 °F /  23.9 °C 29.88in /  1011.7hPa West 1.5mph /  2.4km/h 12mph /  19.3km/h 48.7% 0.00in /  0mm 951 W/m2
13:49 97.9 °F /  36.6 °C 74.9 °F /  23.8 °C 29.88in /  1011.7hPa WSW 2.7mph /  4.3km/h 12mph /  19.3km/h 48% 0.00in /  0mm 951 W/m2
13:54 98 °F /  36.7 °C 74.6 °F /  23.7 °C 29.88in /  1011.7hPa WSW 1.6mph /  2.6km/h 12mph /  19.3km/h 47.5% 0.00in /  0mm 946 W/m2
13:59 97.8 °F /  36.6 °C 73.7 °F /  23.2 °C 29.87in /  1011.4hPa WSW 3.7mph /  6km/h 12mph /  19.3km/h 46.3% 0.00in /  0mm 946 W/m2
14:04 97.8 °F /  36.6 °C 73.6 °F /  23.1 °C 29.87in /  1011.4hPa West 2.4mph /  3.9km/h 12mph /  19.3km/h 46.2% 0.00in /  0mm 946 W/m2
14:09 97.9 °F /  36.6 °C 73.9 °F /  23.3 °C 29.87in /  1011.4hPa SW 2.5mph /  4km/h 9mph /  14.5km/h 46.5% 0.00in /  0mm 937 W/m2
14:14 98.2 °F /  36.8 °C 74.6 °F /  23.7 °C 29.86in /  1011.1hPa WSW 2.3mph /  3.7km/h 10mph /  16.1km/h 47.1% 0.00in /  0mm 937 W/m2
14:19 98.4 °F /  36.9 °C 74.3 °F /  23.5 °C 29.86in /  1011.1hPa West 2.3mph /  3.7km/h 10mph /  16.1km/h 46.4% 0.00in /  0mm 925 W/m2
14:24 98.5 °F /  36.9 °C 74.3 °F /  23.5 °C 29.86in /  1011.1hPa West 2mph /  3.2km/h 10mph /  16.1km/h 46.2% 0.00in /  0mm 919 W/m2
14:29 98.7 °F /  37.1 °C 75.1 °F /  23.9 °C 29.86in /  1011.1hPa WSW 2.3mph /  3.7km/h 10mph /  16.1km/h 47.2% 0.00in /  0mm 914 W/m2
14:34 98.6 °F /  37 °C 73.8 °F /  23.2 °C 29.85in /  1010.7hPa SW 2.9mph /  4.7km/h 10mph /  16.1km/h 45.3% 0.00in /  0mm 909 W/m2
14:39 98.5 °F /  36.9 °C 74.1 °F /  23.4 °C 29.85in /  1010.7hPa WSW 2.4mph /  3.9km/h 10mph /  16.1km/h 45.9% 0.00in /  0mm 905 W/m2
14:44 98.6 °F /  37 °C 74.5 °F /  23.6 °C 29.85in /  1010.7hPa WSW 2.9mph /  4.7km/h 13mph /  20.9km/h 46.5% 0.00in /  0mm 896 W/m2
14:49 98.7 °F /  37.1 °C 74.3 °F /  23.5 °C 29.85in /  1010.7hPa SW 3.2mph /  5.1km/h 13mph /  20.9km/h 45.9% 0.00in /  0mm 889 W/m2
14:54 98.8 °F /  37.1 °C 74.2 °F /  23.4 °C 29.84in /  1010.4hPa SW 2.1mph /  3.4km/h 13mph /  20.9km/h 45.6% 0.00in /  0mm 881 W/m2
14:59 98.9 °F /  37.2 °C 75.2 °F /  24 °C 29.84in /  1010.4hPa WSW 2.3mph /  3.7km/h 13mph /  20.9km/h 47.1% 0.00in /  0mm 874 W/m2
15:04 99 °F /  37.2 °C 74.3 °F /  23.5 °C 29.84in /  1010.4hPa WSW 3.2mph /  5.1km/h 13mph /  20.9km/h 45.6% 0.00in /  0mm 861 W/m2
15:09 99 °F /  37.2 °C 74.3 °F /  23.5 °C 29.84in /  1010.4hPa WSW 2.5mph /  4km/h 10mph /  16.1km/h 45.5% 0.00in /  0mm 858 W/m2
15:14 99.1 °F /  37.3 °C 74.4 °F /  23.6 °C 29.83in /  1010hPa WSW 1.2mph /  1.9km/h 10mph /  16.1km/h 45.5% 0.00in /  0mm 842 W/m2
15:19 99.2 °F /  37.3 °C 74 °F /  23.3 °C 29.83in /  1010hPa West 1.9mph /  3.1km/h 10mph /  16.1km/h 44.8% 0.00in /  0mm 840 W/m2
15:24 99.2 °F /  37.3 °C 74.4 °F /  23.6 °C 29.83in /  1010hPa WSW 2.6mph /  4.2km/h 10mph /  16.1km/h 45.3% 0.00in /  0mm 830 W/m2
15:29 99.3 °F /  37.4 °C 74.3 °F /  23.5 °C 29.82in /  1009.7hPa SW 1.6mph /  2.6km/h 10mph /  16.1km/h 45.2% 0.00in /  0mm 816 W/m2
15:34 99.1 °F /  37.3 °C 74.6 °F /  23.7 °C 29.82in /  1009.7hPa WSW 1.8mph /  2.9km/h 10mph /  16.1km/h 45.8% 0.00in /  0mm 810 W/m2
15:39 98.8 °F /  37.1 °C 74.2 °F /  23.4 °C 29.82in /  1009.7hPa WSW 2.1mph /  3.4km/h 7mph /  11.3km/h 45.7% 0.00in /  0mm 812 W/m2
15:44 98.6 °F /  37 °C 74.2 °F /  23.4 °C 29.81in /  1009.4hPa WSW 2mph /  3.2km/h 9mph /  14.5km/h 45.9% 0.00in /  0mm 789 W/m2
15:49 98.5 °F /  36.9 °C 73.7 °F /  23.2 °C 29.81in /  1009.4hPa WSW 3.2mph /  5.1km/h 11mph /  17.7km/h 45.3% 0.00in /  0mm 775 W/m2
15:54 98.5 °F /  36.9 °C 74 °F /  23.3 °C 29.81in /  1009.4hPa SW 2.8mph /  4.5km/h 11mph /  17.7km/h 45.8% 0.00in /  0mm 780 W/m2
15:59 98.4 °F /  36.9 °C 74.1 °F /  23.4 °C 29.80in /  1009hPa SW 2.7mph /  4.3km/h 11mph /  17.7km/h 46% 0.00in /  0mm 752 W/m2
16:00 98.5 °F /  36.9 °C 73.5 °F /  23.1 °C 29.80in /  1009hPa SW 2mph /  3.2km/h 11mph /  17.7km/h 45% 0.00in /  0mm 742 W/m2
16:09 98.3 °F /  36.8 °C 72.4 °F /  22.4 °C 29.80in /  1009hPa SW 3.8mph /  6.1km/h 7mph /  11.3km/h 43.5% 0.00in /  0mm 729 W/m2
16:14 98.2 °F /  36.8 °C 72.4 °F /  22.4 °C 29.79in /  1008.7hPa SW 3.1mph /  5km/h 8mph /  12.9km/h 43.7% 0.00in /  0mm 712 W/m2
16:19 98.2 °F /  36.8 °C 73.1 °F /  22.8 °C 29.80in /  1009hPa SW 3.2mph /  5.1km/h 8mph /  12.9km/h 44.8% 0.00in /  0mm 645 W/m2
16:24 97.9 °F /  36.6 °C 72.9 °F /  22.7 °C 29.80in /  1009hPa WSW 2mph /  3.2km/h 8mph /  12.9km/h 44.8% 0.00in /  0mm 77 W/m2
16:29 97.6 °F /  36.4 °C 72.9 °F /  22.7 °C 29.80in /  1009hPa WSW 2mph /  3.2km/h 9mph /  14.5km/h 45.3% 0.00in /  0mm 84 W/m2
16:34 97.4 °F /  36.3 °C 73.2 °F /  22.9 °C 29.79in /  1008.7hPa West 3mph /  4.8km/h 11mph /  17.7km/h 46% 0.00in /  0mm 62 W/m2
16:39 97.3 °F /  36.3 °C 73.5 °F /  23.1 °C 29.79in /  1008.7hPa West 2.1mph /  3.4km/h 11mph /  17.7km/h 46.7% 0.00in /  0mm 63 W/m2
16:44 97.3 °F /  36.3 °C 73.8 °F /  23.2 °C 29.79in /  1008.7hPa SW 2.3mph /  3.7km/h 11mph /  17.7km/h 47.2% 0.00in /  0mm 76 W/m2
16:49 97.3 °F /  36.3 °C 73.2 °F /  22.9 °C 29.79in /  1008.7hPa West 2.5mph /  4km/h 11mph /  17.7km/h 46.2% 0.00in /  0mm 98 W/m2
16:54 97.2 °F /  36.2 °C 73.1 °F /  22.8 °C 29.79in /  1008.7hPa WSW 2.2mph /  3.5km/h 11mph /  17.7km/h 46.1% 0.00in /  0mm 116 W/m2
16:59 97.1 °F /  36.2 °C 73.4 °F /  23 °C 29.79in /  1008.7hPa WSW 2.6mph /  4.2km/h 11mph /  17.7km/h 46.8% 0.00in /  0mm 114 W/m2
17:04 96.9 °F /  36.1 °C 73.5 °F /  23.1 °C 29.79in /  1008.7hPa SW 2.9mph /  4.7km/h 11mph /  17.7km/h 47.1% 0.00in /  0mm 76 W/m2
17:09 96.5 °F /  35.8 °C 73 °F /  22.8 °C 29.78in /  1008.4hPa SW 3.3mph /  5.3km/h 11mph /  17.7km/h 47% 0.00in /  0mm 76 W/m2
17:14 96.1 °F /  35.6 °C 73 °F /  22.8 °C 29.79in /  1008.7hPa WSW 3.4mph /  5.5km/h 12mph /  19.3km/h 47.6% 0.00in /  0mm 77 W/m2
17:19 96 °F /  35.6 °C 73.1 °F /  22.8 °C 29.78in /  1008.4hPa WSW 2.6mph /  4.2km/h 12mph /  19.3km/h 47.8% 0.00in /  0mm 90 W/m2
17:24 95.8 °F /  35.4 °C 73.2 °F /  22.9 °C 29.78in /  1008.4hPa West 2.3mph /  3.7km/h 12mph /  19.3km/h 48.4% 0.00in /  0mm 104 W/m2
17:29 95.6 °F /  35.3 °C 73.3 °F /  22.9 °C 29.78in /  1008.4hPa WSW 2.9mph /  4.7km/h 12mph /  19.3km/h 48.8% 0.00in /  0mm 107 W/m2
17:34 95.5 °F /  35.3 °C 74.1 °F /  23.4 °C 29.79in /  1008.7hPa SW 0.7mph /  1.1km/h 12mph /  19.3km/h 50.3% 0.00in /  0mm 100 W/m2
17:39 95.3 °F /  35.2 °C 77.3 °F /  25.2 °C 29.79in /  1008.7hPa SW 0.9mph /  1.4km/h 8mph /  12.9km/h 56.4% 0.00in /  0mm 105 W/m2
17:44 94.8 °F /  34.9 °C 77.7 °F /  25.4 °C 29.79in /  1008.7hPa SSW 1.6mph /  2.6km/h 8mph /  12.9km/h 57.9% 0.00in /  0mm 105 W/m2
17:49 94.3 °F /  34.6 °C 77.6 °F /  25.3 °C 29.79in /  1008.7hPa SSW 1.7mph /  2.7km/h 8mph /  12.9km/h 58.7% 0.00in /  0mm 65 W/m2
17:54 93.6 °F /  34.2 °C 77.6 °F /  25.3 °C 29.79in /  1008.7hPa SSW 0.4mph /  0.6km/h 8mph /  12.9km/h 59.8% 0.00in /  0mm 33 W/m2
17:59 92.9 °F /  33.8 °C 77.4 °F /  25.2 °C 29.79in /  1008.7hPa SSW 0.7mph /  1.1km/h 8mph /  12.9km/h 60.7% 0.00in /  0mm 72 W/m2
18:04 92.5 °F /  33.6 °C 77.4 °F /  25.2 °C 29.79in /  1008.7hPa SSW 0.2mph /  0.3km/h 8mph /  12.9km/h 61.6% 0.00in /  0mm 77 W/m2
18:09 92.2 °F /  33.4 °C 77.7 °F /  25.4 °C 29.79in /  1008.7hPa SSW 1.1mph /  1.8km/h 5mph /  8km/h 62.8% 0.00in /  0mm 53 W/m2
18:14 92 °F /  33.3 °C 77.5 °F /  25.3 °C 29.80in /  1009hPa SW 0.9mph /  1.4km/h 5mph /  8km/h 62.8% 0.00in /  0mm 76 W/m2
18:19 91.7 °F /  33.2 °C 77.3 °F /  25.2 °C 29.80in /  1009hPa SSW 0.6mph /  1km/h 5mph /  8km/h 63% 0.00in /  0mm 81 W/m2
18:24 91.5 °F /  33.1 °C 77.2 °F /  25.1 °C 29.79in /  1008.7hPa SSW 0.1mph /  0.2km/h 5mph /  8km/h 63% 0.00in /  0mm 62 W/m2
18:29 91.4 °F /  33 °C 77.5 °F /  25.3 °C 29.79in /  1008.7hPa SSW 0.3mph /  0.5km/h 5mph /  8km/h 63.9% 0.00in /  0mm 56 W/m2
18:34 91.3 °F /  32.9 °C 77 °F /  25 °C 29.78in /  1008.4hPa SSW 0.3mph /  0.5km/h 5mph /  8km/h 63.1% 0.00in /  0mm 30 W/m2
18:39 91.1 °F /  32.8 °C 77.2 °F /  25.1 °C 29.78in /  1008.4hPa SSW 0.5mph /  0.8km/h 5mph /  8km/h 63.8% 0.00in /  0mm 33 W/m2
18:44 90.9 °F /  32.7 °C 76.6 °F /  24.8 °C 29.77in /  1008hPa SSW 0.8mph /  1.3km/h 5mph /  8km/h 63% 0.00in /  0mm 16 W/m2
18:49 90.6 °F /  32.6 °C 76.6 °F /  24.8 °C 29.77in /  1008hPa SSW 0.3mph /  0.5km/h 5mph /  8km/h 63.6% 0.00in /  0mm 16 W/m2
18:54 90.4 °F /  32.4 °C 76.6 °F /  24.8 °C 29.78in /  1008.4hPa Calm   5mph /  8km/h 64% 0.00in /  0mm 14 W/m2
18:59 90.2 °F /  32.3 °C 76.3 °F /  24.6 °C 29.79in /  1008.7hPa SSW 0.3mph /  0.5km/h 5mph /  8km/h 63.8% 0.00in /  0mm 16 W/m2
19:04 90 °F /  32.2 °C 76.1 °F /  24.5 °C 29.79in /  1008.7hPa SSW 0.1mph /  0.2km/h 5mph /  8km/h 63.8% 0.00in /  0mm 16 W/m2
19:09 89.8 °F /  32.1 °C 76 °F /  24.4 °C 29.80in /  1009hPa SSW 0.2mph /  0.3km/h 3mph /  4.8km/h 64% 0.00in /  0mm 16 W/m2
19:13 89.7 °F /  32.1 °C 76.1 °F /  24.5 °C 29.81in /  1009.4hPa SSW 0.6mph /  1km/h 3mph /  4.8km/h 64.5% 0.00in /  0mm 14 W/m2
19:30 84.7 °F /  29.3 °C 72.5 °F /  22.5 °C 29.87in /  1011.4hPa NW 2mph /  3.2km/h 12mph /  19.3km/h 67% 0.00in /  0mm 7 W/m2
20:04 77.6 °F /  25.3 °C 72.7 °F /  22.6 °C 29.91in /  1012.8hPa NW 2.5mph /  4km/h 8mph /  12.9km/h 85% 0.06in /  1.52mm 0 W/m2
20:09 77.1 °F /  25.1 °C 72.4 °F /  22.4 °C 29.90in /  1012.4hPa NNW 0.3mph /  0.5km/h 8mph /  12.9km/h 85.4% 0.07in /  1.78mm 0 W/m2
20:14 76.6 °F /  24.8 °C 72.2 °F /  22.3 °C 29.91in /  1012.8hPa Calm   8mph /  12.9km/h 86.5% 0.07in /  1.78mm 0 W/m2
20:19 76.1 °F /  24.5 °C 72.3 °F /  22.4 °C 29.91in /  1012.8hPa Calm   8mph /  12.9km/h 87.9% 0.07in /  1.78mm 0 W/m2
20:24 75.9 °F /  24.4 °C 72.3 °F /  22.4 °C 29.91in /  1012.8hPa Calm   8mph /  12.9km/h 88.7% 0.07in /  1.78mm 0 W/m2
20:29 75.7 °F /  24.3 °C 72.4 °F /  22.4 °C 29.92in /  1013.1hPa Calm   8mph /  12.9km/h 89.5% 0.07in /  1.78mm 0 W/m2
20:34 75.7 °F /  24.3 °C 72.7 °F /  22.6 °C 29.92in /  1013.1hPa Calm   8mph /  12.9km/h 90.4% 0.13in /  3.3mm 0 W/m2
20:39 75.7 °F /  24.3 °C 72.9 °F /  22.7 °C 29.91in /  1012.8hPa Calm     91% 0.16in /  4.06mm 0 W/m2
20:44 75.6 °F /  24.2 °C 72.8 °F /  22.7 °C 29.90in /  1012.4hPa Calm     91% 0.17in /  4.32mm 0 W/m2
20:49 75.4 °F /  24.1 °C 72.7 °F /  22.6 °C 29.89in /  1012.1hPa Calm     91.2% 0.17in /  4.32mm 0 W/m2
20:54 75.4 °F /  24.1 °C 72.9 °F /  22.7 °C 29.89in /  1012.1hPa Calm     92% 0.17in /  4.32mm 0 W/m2
20:59 75.3 °F /  24.1 °C 72.9 °F /  22.7 °C 29.89in /  1012.1hPa Calm     92% 0.17in /  4.32mm 0 W/m2
21:04 75.3 °F /  24.1 °C 72.8 °F /  22.7 °C 29.89in /  1012.1hPa Calm     92% 0.17in /  4.32mm 0 W/m2
21:09 75.3 °F /  24.1 °C 72.8 °F /  22.7 °C 29.89in /  1012.1hPa Calm     92% 0.10in /  2.54mm 0 W/m2
21:14 75.3 °F /  24.1 °C 73.1 °F /  22.8 °C 29.89in /  1012.1hPa Calm     92.9% 0.10in /  2.54mm 0 W/m2
21:19 75.3 °F /  24.1 °C 73.2 °F /  22.9 °C 29.90in /  1012.4hPa Calm     93% 0.10in /  2.54mm 0 W/m2
21:24 75.4 °F /  24.1 °C 73.2 °F /  22.9 °C 29.90in /  1012.4hPa Calm     93% 0.10in /  2.54mm 0 W/m2
21:29 75.4 °F /  24.1 °C 73.2 °F /  22.9 °C 29.90in /  1012.4hPa Calm     93% 0.10in /  2.54mm 0 W/m2
21:34 75.3 °F /  24.1 °C 73.2 °F /  22.9 °C 29.90in /  1012.4hPa Calm     93% 0.10in /  2.54mm 0 W/m2
21:39 75.3 °F /  24.1 °C 73.1 °F /  22.8 °C 29.89in /  1012.1hPa Calm     93% 0.10in /  2.54mm 0 W/m2
21:44 75.3 °F /  24.1 °C 73.1 °F /  22.8 °C 29.89in /  1012.1hPa Calm   1mph /  1.6km/h 93% 0.10in /  2.54mm 0 W/m2
21:49 75.3 °F /  24.1 °C 73.2 °F /  22.9 °C 29.88in /  1011.7hPa Calm   1mph /  1.6km/h 93.4% 0.11in /  2.79mm 0 W/m2
21:54 75.1 °F /  23.9 °C 73.3 °F /  22.9 °C 29.87in /  1011.4hPa Calm   1mph /  1.6km/h 94% 0.11in /  2.79mm 0 W/m2
21:59 75 °F /  23.9 °C 73.2 °F /  22.9 °C 29.87in /  1011.4hPa Calm   1mph /  1.6km/h 94% 0.11in /  2.79mm 0 W/m2
22:04 75.1 °F /  23.9 °C 73.2 °F /  22.9 °C 29.87in /  1011.4hPa Calm   1mph /  1.6km/h 94% 0.11in /  2.79mm 0 W/m2
22:09 75 °F /  23.9 °C 73.2 °F /  22.9 °C 29.86in /  1011.1hPa Calm     94% 0.01in /  0.25mm 0 W/m2
22:14 75 °F /  23.9 °C 73.2 °F /  22.9 °C 29.87in /  1011.4hPa Calm     94% 0.01in /  0.25mm 0 W/m2
22:19 75.1 °F /  23.9 °C 73.3 °F /  22.9 °C 29.87in /  1011.4hPa Calm     94% 0.02in /  0.51mm 0 W/m2
22:24 75.1 °F /  23.9 °C 73.3 °F /  22.9 °C 29.87in /  1011.4hPa Calm     94% 0.02in /  0.51mm 0 W/m2
22:29 75.1 °F /  23.9 °C 73.2 °F /  22.9 °C 29.87in /  1011.4hPa Calm     94% 0.02in /  0.51mm 0 W/m2
22:34 75 °F /  23.9 °C 73.1 °F /  22.8 °C 29.87in /  1011.4hPa Calm     94% 0.02in /  0.51mm 0 W/m2
22:39 74.9 °F /  23.8 °C 73 °F /  22.8 °C 29.86in /  1011.1hPa Calm     94% 0.02in /  0.51mm 0 W/m2
22:44 74.8 °F /  23.8 °C 73 °F /  22.8 °C 29.86in /  1011.1hPa Calm     94% 0.02in /  0.51mm 0 W/m2
22:49 74.7 °F /  23.7 °C 72.9 °F /  22.7 °C 29.86in /  1011.1hPa Calm     94% 0.02in /  0.51mm 0 W/m2
22:54 74.7 °F /  23.7 °C 72.9 °F /  22.7 °C 29.86in /  1011.1hPa Calm     94% 0.02in /  0.51mm 0 W/m2
22:59 74.7 °F /  23.7 °C 72.8 °F /  22.7 °C 29.86in /  1011.1hPa Calm     94% 0.02in /  0.51mm 0 W/m2
23:04 74.6 °F /  23.7 °C 72.8 °F /  22.7 °C 29.86in /  1011.1hPa Calm     94% 0.01in /  0.25mm 0 W/m2
23:09 74.6 °F /  23.7 °C 72.7 °F /  22.6 °C 29.86in /  1011.1hPa Calm     94% 0.01in /  0.25mm 0 W/m2
23:10 74.6 °F /  23.7 °C 72.7 °F /  22.6 °C 29.86in /  1011.1hPa Calm     94% 0.01in /  0.25mm 0 W/m2
23:30 74.4 °F /  23.6 °C 72.9 °F /  22.7 °C 29.85in /  1010.7hPa Calm     95% 0.00in /  0mm 0 W/m2
Hartford County Weather
Compliments of Weather Underground - 2 mb